sensor_id;sensor_type;location;lat;lon;timestamp;temperature;humidity
9537;DHT22;4807;48.024;11.726;2022-09-17T00:00:10;10.10;99.90
9537;DHT22;4807;48.024;11.726;2022-09-17T00:03:19;10.10;99.90
9537;DHT22;4807;48.024;11.726;2022-09-17T00:06:29;10.20;99.90
9537;DHT22;4807;48.024;11.726;2022-09-17T00:09:40;10.10;99.90
9537;DHT22;4807;48.024;11.726;2022-09-17T00:12:50;9.80;99.90
9537;DHT22;4807;48.024;11.726;2022-09-17T00:15:58;9.70;99.90
9537;DHT22;4807;48.024;11.726;2022-09-17T00:19:11;9.80;99.90
9537;DHT22;4807;48.024;11.726;2022-09-17T00:22:21;9.60;99.90
9537;DHT22;4807;48.024;11.726;2022-09-17T00:25:30;9.70;99.90
9537;DHT22;4807;48.024;11.726;2022-09-17T00:28:39;9.70;99.90
9537;DHT22;4807;48.024;11.726;2022-09-17T00:31:47;9.70;99.90
9537;DHT22;4807;48.024;11.726;2022-09-17T00:34:55;9.70;99.90
9537;DHT22;4807;48.024;11.726;2022-09-17T00:38:04;9.70;99.90
9537;DHT22;4807;48.024;11.726;2022-09-17T00:41:14;9.70;99.90
9537;DHT22;4807;48.024;11.726;2022-09-17T00:44:41;9.70;99.90
9537;DHT22;4807;48.024;11.726;2022-09-17T00:47:57;9.60;99.90
9537;DHT22;4807;48.024;11.726;2022-09-17T00:51:09;9.60;99.90
9537;DHT22;4807;48.024;11.726;2022-09-17T00:54:20;9.60;99.90
9537;DHT22;4807;48.024;11.726;2022-09-17T00:57:31;9.60;99.90
9537;DHT22;4807;48.024;11.726;2022-09-17T01:00:40;9.50;99.90
9537;DHT22;4807;48.024;11.726;2022-09-17T01:03:49;9.50;99.90
9537;DHT22;4807;48.024;11.726;2022-09-17T01:07:18;9.50;99.90
9537;DHT22;4807;48.024;11.726;2022-09-17T01:11:06;9.50;99.90
9537;DHT22;4807;48.024;11.726;2022-09-17T01:14:37;9.50;99.90
9537;DHT22;4807;48.024;11.726;2022-09-17T01:18:21;9.40;99.90
9537;DHT22;4807;48.024;11.726;2022-09-17T01:21:57;9.40;99.90
9537;DHT22;4807;48.024;11.726;2022-09-17T01:25:19;9.40;99.90
9537;DHT22;4807;48.024;11.726;2022-09-17T01:28:34;9.40;99.90
9537;DHT22;4807;48.024;11.726;2022-09-17T01:31:55;9.40;99.90
9537;DHT22;4807;48.024;11.726;2022-09-17T01:35:16;9.30;99.90
9537;DHT22;4807;48.024;11.726;2022-09-17T01:38:34;9.30;99.90
9537;DHT22;4807;48.024;11.726;2022-09-17T01:41:52;9.20;99.90
9537;DHT22;4807;48.024;11.726;2022-09-17T01:45:10;9.20;99.90
9537;DHT22;4807;48.024;11.726;2022-09-17T01:48:28;9.10;99.90
9537;DHT22;4807;48.024;11.726;2022-09-17T01:51:43;9.10;99.90
9537;DHT22;4807;48.024;11.726;2022-09-17T01:54:56;9.10;99.90
9537;DHT22;4807;48.024;11.726;2022-09-17T01:58:12;9.10;99.90
9537;DHT22;4807;48.024;11.726;2022-09-17T02:01:24;9.10;99.90
9537;DHT22;4807;48.024;11.726;2022-09-17T02:04:42;9.20;99.90
9537;DHT22;4807;48.024;11.726;2022-09-17T02:07:58;9.20;99.90
9537;DHT22;4807;48.024;11.726;2022-09-17T02:11:13;9.20;99.90
9537;DHT22;4807;48.024;11.726;2022-09-17T02:14:26;9.20;99.90
9537;DHT22;4807;48.024;11.726;2022-09-17T02:17:43;9.20;99.90
9537;DHT22;4807;48.024;11.726;2022-09-17T02:21:02;9.20;99.90
9537;DHT22;4807;48.024;11.726;2022-09-17T02:24:18;9.20;99.90
9537;DHT22;4807;48.024;11.726;2022-09-17T02:27:38;9.20;99.90
9537;DHT22;4807;48.024;11.726;2022-09-17T02:30:53;9.10;99.90
9537;DHT22;4807;48.024;11.726;2022-09-17T02:34:03;9.10;99.90
9537;DHT22;4807;48.024;11.726;2022-09-17T02:37:15;9.10;99.90
9537;DHT22;4807;48.024;11.726;2022-09-17T02:40:26;9.10;99.90
9537;DHT22;4807;48.024;11.726;2022-09-17T02:43:47;9.10;99.90
9537;DHT22;4807;48.024;11.726;2022-09-17T02:47:14;9.10;99.90
9537;DHT22;4807;48.024;11.726;2022-09-17T02:50:54;9.20;99.90
9537;DHT22;4807;48.024;11.726;2022-09-17T02:54:17;9.20;99.90
9537;DHT22;4807;48.024;11.726;2022-09-17T02:57:38;9.10;99.90
9537;DHT22;4807;48.024;11.726;2022-09-17T03:00:53;9.00;99.90
9537;DHT22;4807;48.024;11.726;2022-09-17T03:04:09;8.90;99.90
9537;DHT22;4807;48.024;11.726;2022-09-17T03:07:22;8.90;99.90
9537;DHT22;4807;48.024;11.726;2022-09-17T03:10:32;8.80;99.90
9537;DHT22;4807;48.024;11.726;2022-09-17T03:13:40;8.80;99.90
9537;DHT22;4807;48.024;11.726;2022-09-17T03:16:48;8.70;99.90
9537;DHT22;4807;48.024;11.726;2022-09-17T03:19:56;8.70;99.90
9537;DHT22;4807;48.024;11.726;2022-09-17T03:23:05;8.70;99.90
9537;DHT22;4807;48.024;11.726;2022-09-17T03:26:14;8.70;99.90
9537;DHT22;4807;48.024;11.726;2022-09-17T03:29:22;8.60;99.90
9537;DHT22;4807;48.024;11.726;2022-09-17T03:32:31;8.50;99.90
9537;DHT22;4807;48.024;11.726;2022-09-17T03:35:41;8.60;99.90
9537;DHT22;4807;48.024;11.726;2022-09-17T03:38:53;8.50;99.90
9537;DHT22;4807;48.024;11.726;2022-09-17T03:42:03;8.50;99.90
9537;DHT22;4807;48.024;11.726;2022-09-17T03:45:12;8.50;99.90
9537;DHT22;4807;48.024;11.726;2022-09-17T03:48:21;8.50;99.90
9537;DHT22;4807;48.024;11.726;2022-09-17T03:51:29;8.50;99.90
9537;DHT22;4807;48.024;11.726;2022-09-17T03:54:38;8.40;99.90
9537;DHT22;4807;48.024;11.726;2022-09-17T03:57:47;8.40;99.90
9537;DHT22;4807;48.024;11.726;2022-09-17T04:00:57;8.40;99.90
9537;DHT22;4807;48.024;11.726;2022-09-17T04:04:05;8.40;99.90
9537;DHT22;4807;48.024;11.726;2022-09-17T04:07:14;8.40;99.90
9537;DHT22;4807;48.024;11.726;2022-09-17T04:10:22;8.40;99.90
9537;DHT22;4807;48.024;11.726;2022-09-17T04:13:31;8.50;99.90
9537;DHT22;4807;48.024;11.726;2022-09-17T04:16:40;8.40;99.90
9537;DHT22;4807;48.024;11.726;2022-09-17T04:19:48;8.40;99.90
9537;DHT22;4807;48.024;11.726;2022-09-17T04:22:57;8.40;99.90
9537;DHT22;4807;48.024;11.726;2022-09-17T04:26:05;8.30;99.90
9537;DHT22;4807;48.024;11.726;2022-09-17T04:29:15;8.30;99.90
9537;DHT22;4807;48.024;11.726;2022-09-17T04:32:23;8.30;99.90
9537;DHT22;4807;48.024;11.726;2022-09-17T04:35:31;8.30;99.90
9537;DHT22;4807;48.024;11.726;2022-09-17T04:38:40;8.40;99.90
9537;DHT22;4807;48.024;11.726;2022-09-17T04:41:48;8.50;99.90
9537;DHT22;4807;48.024;11.726;2022-09-17T04:44:58;8.60;99.90
9537;DHT22;4807;48.024;11.726;2022-09-17T04:48:06;8.60;99.90
9537;DHT22;4807;48.024;11.726;2022-09-17T04:51:15;8.60;99.90
9537;DHT22;4807;48.024;11.726;2022-09-17T04:54:23;8.60;99.90
9537;DHT22;4807;48.024;11.726;2022-09-17T04:57:31;8.60;99.90
9537;DHT22;4807;48.024;11.726;2022-09-17T05:00:41;8.60;99.90
9537;DHT22;4807;48.024;11.726;2022-09-17T05:03:49;8.70;99.90
9537;DHT22;4807;48.024;11.726;2022-09-17T05:06:57;8.60;99.90
9537;DHT22;4807;48.024;11.726;2022-09-17T05:10:07;8.60;99.90
9537;DHT22;4807;48.024;11.726;2022-09-17T05:13:16;8.60;99.90
9537;DHT22;4807;48.024;11.726;2022-09-17T05:16:26;8.60;99.90
9537;DHT22;4807;48.024;11.726;2022-09-17T05:19:35;8.50;99.90
9537;DHT22;4807;48.024;11.726;2022-09-17T05:22:44;8.50;99.90
9537;DHT22;4807;48.024;11.726;2022-09-17T05:25:57;8.60;99.90
9537;DHT22;4807;48.024;11.726;2022-09-17T05:29:06;8.60;99.90
9537;DHT22;4807;48.024;11.726;2022-09-17T05:32:16;8.60;99.90
9537;DHT22;4807;48.024;11.726;2022-09-17T05:35:24;8.60;99.90
9537;DHT22;4807;48.024;11.726;2022-09-17T05:38:32;8.60;99.90
9537;DHT22;4807;48.024;11.726;2022-09-17T05:41:41;8.60;99.90
9537;DHT22;4807;48.024;11.726;2022-09-17T05:44:49;8.60;99.90
9537;DHT22;4807;48.024;11.726;2022-09-17T05:48:00;8.60;99.90
9537;DHT22;4807;48.024;11.726;2022-09-17T05:51:10;8.60;99.90
9537;DHT22;4807;48.024;11.726;2022-09-17T05:54:18;8.60;99.90
9537;DHT22;4807;48.024;11.726;2022-09-17T05:57:28;8.50;99.90
9537;DHT22;4807;48.024;11.726;2022-09-17T06:00:37;8.60;99.90
9537;DHT22;4807;48.024;11.726;2022-09-17T06:03:47;8.60;99.90
9537;DHT22;4807;48.024;11.726;2022-09-17T06:06:55;8.60;99.90
9537;DHT22;4807;48.024;11.726;2022-09-17T06:10:05;8.70;99.90
9537;DHT22;4807;48.024;11.726;2022-09-17T06:13:14;8.70;99.90
9537;DHT22;4807;48.024;11.726;2022-09-17T06:16:23;8.70;99.90
9537;DHT22;4807;48.024;11.726;2022-09-17T06:19:33;8.70;99.90
9537;DHT22;4807;48.024;11.726;2022-09-17T06:22:41;8.70;99.90
9537;DHT22;4807;48.024;11.726;2022-09-17T06:25:51;8.80;99.90
9537;DHT22;4807;48.024;11.726;2022-09-17T06:29:01;8.80;99.90
9537;DHT22;4807;48.024;11.726;2022-09-17T06:32:09;8.80;99.90
9537;DHT22;4807;48.024;11.726;2022-09-17T06:35:20;8.90;99.90
9537;DHT22;4807;48.024;11.726;2022-09-17T06:38:29;9.00;99.90
9537;DHT22;4807;48.024;11.726;2022-09-17T06:41:40;9.10;99.90
9537;DHT22;4807;48.024;11.726;2022-09-17T06:44:49;9.20;99.90
9537;DHT22;4807;48.024;11.726;2022-09-17T06:47:57;9.20;99.90
9537;DHT22;4807;48.024;11.726;2022-09-17T06:51:12;9.30;99.90
9537;DHT22;4807;48.024;11.726;2022-09-17T06:54:21;9.40;99.90
9537;DHT22;4807;48.024;11.726;2022-09-17T06:57:29;9.50;99.90
9537;DHT22;4807;48.024;11.726;2022-09-17T07:00:37;9.50;99.90
9537;DHT22;4807;48.024;11.726;2022-09-17T07:03:46;9.40;99.90
9537;DHT22;4807;48.024;11.726;2022-09-17T07:06:56;9.30;99.90
9537;DHT22;4807;48.024;11.726;2022-09-17T07:10:06;9.20;99.90
9537;DHT22;4807;48.024;11.726;2022-09-17T07:13:15;9.20;99.90
9537;DHT22;4807;48.024;11.726;2022-09-17T07:16:23;9.20;99.90
9537;DHT22;4807;48.024;11.726;2022-09-17T07:19:32;9.10;99.90
9537;DHT22;4807;48.024;11.726;2022-09-17T07:22:42;9.10;99.90
9537;DHT22;4807;48.024;11.726;2022-09-17T07:25:51;9.10;99.90
9537;DHT22;4807;48.024;11.726;2022-09-17T07:29:00;9.10;99.90
9537;DHT22;4807;48.024;11.726;2022-09-17T07:32:08;9.20;99.90
9537;DHT22;4807;48.024;11.726;2022-09-17T07:35:16;9.30;99.90
9537;DHT22;4807;48.024;11.726;2022-09-17T07:38:26;9.60;99.90
9537;DHT22;4807;48.024;11.726;2022-09-17T07:41:39;9.80;99.90
9537;DHT22;4807;48.024;11.726;2022-09-17T07:44:47;9.90;99.90
9537;DHT22;4807;48.024;11.726;2022-09-17T07:47:56;10.00;99.90
9537;DHT22;4807;48.024;11.726;2022-09-17T07:51:04;9.80;99.90
9537;DHT22;4807;48.024;11.726;2022-09-17T07:54:14;9.70;99.90
9537;DHT22;4807;48.024;11.726;2022-09-17T07:57:22;10.10;99.90
9537;DHT22;4807;48.024;11.726;2022-09-17T08:00:31;10.40;99.90
9537;DHT22;4807;48.024;11.726;2022-09-17T08:03:39;10.50;99.90
9537;DHT22;4807;48.024;11.726;2022-09-17T08:06:49;10.80;99.90
9537;DHT22;4807;48.024;11.726;2022-09-17T08:09:58;11.00;99.90
9537;DHT22;4807;48.024;11.726;2022-09-17T08:13:07;11.10;99.90
9537;DHT22;4807;48.024;11.726;2022-09-17T08:16:16;10.90;99.90
9537;DHT22;4807;48.024;11.726;2022-09-17T08:19:26;10.70;99.90
9537;DHT22;4807;48.024;11.726;2022-09-17T08:22:38;10.60;99.90
9537;DHT22;4807;48.024;11.726;2022-09-17T08:25:56;10.50;99.90
9537;DHT22;4807;48.024;11.726;2022-09-17T08:29:06;10.40;99.90
9537;DHT22;4807;48.024;11.726;2022-09-17T08:32:16;10.50;99.90
9537;DHT22;4807;48.024;11.726;2022-09-17T08:35:24;11.60;99.90
9537;DHT22;4807;48.024;11.726;2022-09-17T08:38:35;11.60;99.90
9537;DHT22;4807;48.024;11.726;2022-09-17T08:42:06;11.60;99.90
9537;DHT22;4807;48.024;11.726;2022-09-17T08:45:20;11.70;99.90
9537;DHT22;4807;48.024;11.726;2022-09-17T08:48:34;11.60;99.90
9537;DHT22;4807;48.024;11.726;2022-09-17T08:51:57;11.70;99.90
9537;DHT22;4807;48.024;11.726;2022-09-17T08:55:26;11.90;99.90
9537;DHT22;4807;48.024;11.726;2022-09-17T08:58:52;12.40;99.90
9537;DHT22;4807;48.024;11.726;2022-09-17T09:02:17;12.50;99.90
9537;DHT22;4807;48.024;11.726;2022-09-17T09:05:40;12.50;99.90
9537;DHT22;4807;48.024;11.726;2022-09-17T09:08:55;12.20;99.90
9537;DHT22;4807;48.024;11.726;2022-09-17T09:12:14;11.60;99.90
9537;DHT22;4807;48.024;11.726;2022-09-17T09:15:48;11.20;99.90
9537;DHT22;4807;48.024;11.726;2022-09-17T09:19:13;10.80;99.90
9537;DHT22;4807;48.024;11.726;2022-09-17T09:22:39;10.60;99.90
9537;DHT22;4807;48.024;11.726;2022-09-17T09:26:02;10.60;99.90
9537;DHT22;4807;48.024;11.726;2022-09-17T09:29:38;10.60;99.90
9537;DHT22;4807;48.024;11.726;2022-09-17T09:33:04;10.60;99.90
9537;DHT22;4807;48.024;11.726;2022-09-17T09:36:20;10.50;99.90
9537;DHT22;4807;48.024;11.726;2022-09-17T09:39:30;10.40;99.90
9537;DHT22;4807;48.024;11.726;2022-09-17T09:43:10;10.60;99.90
9537;DHT22;4807;48.024;11.726;2022-09-17T09:47:11;10.60;99.90
9537;DHT22;4807;48.024;11.726;2022-09-17T09:50:48;11.00;99.90
9537;DHT22;4807;48.024;11.726;2022-09-17T09:54:24;11.00;99.90
9537;DHT22;4807;48.024;11.726;2022-09-17T09:57:44;11.20;99.90
9537;DHT22;4807;48.024;11.726;2022-09-17T10:00:55;11.20;99.90
9537;DHT22;4807;48.024;11.726;2022-09-17T10:04:17;11.30;99.90
9537;DHT22;4807;48.024;11.726;2022-09-17T10:07:28;10.90;99.90
9537;DHT22;4807;48.024;11.726;2022-09-17T10:10:53;10.70;99.90
9537;DHT22;4807;48.024;11.726;2022-09-17T10:14:14;10.80;99.90
9537;DHT22;4807;48.024;11.726;2022-09-17T10:17:29;11.30;99.90
9537;DHT22;4807;48.024;11.726;2022-09-17T10:20:48;11.90;99.90
9537;DHT22;4807;48.024;11.726;2022-09-17T10:24:19;11.90;99.90
9537;DHT22;4807;48.024;11.726;2022-09-17T10:27:31;11.70;99.90
9537;DHT22;4807;48.024;11.726;2022-09-17T10:30:54;11.60;99.90
9537;DHT22;4807;48.024;11.726;2022-09-17T10:34:04;11.40;99.90
9537;DHT22;4807;48.024;11.726;2022-09-17T10:37:35;11.20;99.90
9537;DHT22;4807;48.024;11.726;2022-09-17T10:40:51;10.90;99.90
9537;DHT22;4807;48.024;11.726;2022-09-17T10:44:16;10.20;99.90
9537;DHT22;4807;48.024;11.726;2022-09-17T10:47:26;10.00;99.90
9537;DHT22;4807;48.024;11.726;2022-09-17T10:50:37;9.50;99.90
9537;DHT22;4807;48.024;11.726;2022-09-17T10:54:07;9.00;99.90
9537;DHT22;4807;48.024;11.726;2022-09-17T10:57:50;8.80;99.90
9537;DHT22;4807;48.024;11.726;2022-09-17T11:01:09;8.70;99.90
9537;DHT22;4807;48.024;11.726;2022-09-17T11:04:39;8.70;99.90
9537;DHT22;4807;48.024;11.726;2022-09-17T11:08:01;8.90;99.90
9537;DHT22;4807;48.024;11.726;2022-09-17T11:11:28;9.30;99.90
9537;DHT22;4807;48.024;11.726;2022-09-17T11:14:56;9.70;99.90
9537;DHT22;4807;48.024;11.726;2022-09-17T11:18:31;9.90;99.90
9537;DHT22;4807;48.024;11.726;2022-09-17T11:21:47;9.90;99.90
9537;DHT22;4807;48.024;11.726;2022-09-17T11:25:20;9.90;99.90
9537;DHT22;4807;48.024;11.726;2022-09-17T11:28:51;9.90;99.90
9537;DHT22;4807;48.024;11.726;2022-09-17T11:32:25;10.10;99.90
9537;DHT22;4807;48.024;11.726;2022-09-17T11:35:46;10.30;99.90
9537;DHT22;4807;48.024;11.726;2022-09-17T11:38:58;10.50;99.90
9537;DHT22;4807;48.024;11.726;2022-09-17T11:42:19;10.60;99.90
9537;DHT22;4807;48.024;11.726;2022-09-17T11:45:37;10.50;99.90
9537;DHT22;4807;48.024;11.726;2022-09-17T11:48:58;10.20;99.90
9537;DHT22;4807;48.024;11.726;2022-09-17T11:52:13;10.10;99.90
9537;DHT22;4807;48.024;11.726;2022-09-17T11:55:29;10.40;99.90
9537;DHT22;4807;48.024;11.726;2022-09-17T11:58:47;10.70;99.90
9537;DHT22;4807;48.024;11.726;2022-09-17T12:02:03;10.90;99.90
9537;DHT22;4807;48.024;11.726;2022-09-17T12:05:27;11.00;99.90
9537;DHT22;4807;48.024;11.726;2022-09-17T12:08:44;11.00;99.90
9537;DHT22;4807;48.024;11.726;2022-09-17T12:12:05;10.90;99.90
9537;DHT22;4807;48.024;11.726;2022-09-17T12:15:42;10.80;99.90
9537;DHT22;4807;48.024;11.726;2022-09-17T12:19:02;10.80;99.90
9537;DHT22;4807;48.024;11.726;2022-09-17T12:22:21;10.90;99.90
9537;DHT22;4807;48.024;11.726;2022-09-17T12:25:35;10.90;99.90
9537;DHT22;4807;48.024;11.726;2022-09-17T12:28:56;11.10;99.90
9537;DHT22;4807;48.024;11.726;2022-09-17T12:32:25;11.20;99.90
9537;DHT22;4807;48.024;11.726;2022-09-17T12:36:04;11.10;99.90
9537;DHT22;4807;48.024;11.726;2022-09-17T12:43:39;11.30;99.90
9537;DHT22;4807;48.024;11.726;2022-09-17T12:47:12;11.50;99.90
9537;DHT22;4807;48.024;11.726;2022-09-17T12:50:54;11.60;99.90
9537;DHT22;4807;48.024;11.726;2022-09-17T12:54:23;11.20;99.90
9537;DHT22;4807;48.024;11.726;2022-09-17T12:57:58;10.60;99.90
9537;DHT22;4807;48.024;11.726;2022-09-17T13:01:20;10.00;99.90
9537;DHT22;4807;48.024;11.726;2022-09-17T13:05:01;10.20;99.90
9537;DHT22;4807;48.024;11.726;2022-09-17T13:08:56;9.40;99.90
9537;DHT22;4807;48.024;11.726;2022-09-17T13:12:21;8.90;99.90
9537;DHT22;4807;48.024;11.726;2022-09-17T13:15:45;9.00;99.90
9537;DHT22;4807;48.024;11.726;2022-09-17T13:19:08;9.30;99.90
9537;DHT22;4807;48.024;11.726;2022-09-17T13:22:27;9.60;99.90
9537;DHT22;4807;48.024;11.726;2022-09-17T13:25:48;10.00;99.90
9537;DHT22;4807;48.024;11.726;2022-09-17T13:29:01;10.40;99.90
9537;DHT22;4807;48.024;11.726;2022-09-17T13:32:43;10.90;99.90
9537;DHT22;4807;48.024;11.726;2022-09-17T13:35:53;11.10;99.90
9537;DHT22;4807;48.024;11.726;2022-09-17T13:39:02;10.70;99.90
9537;DHT22;4807;48.024;11.726;2022-09-17T13:42:18;10.00;99.90
9537;DHT22;4807;48.024;11.726;2022-09-17T13:49:29;9.10;99.90
9537;DHT22;4807;48.024;11.726;2022-09-17T13:52:40;8.90;99.90
9537;DHT22;4807;48.024;11.726;2022-09-17T13:55:53;8.80;99.90
9537;DHT22;4807;48.024;11.726;2022-09-17T13:59:05;8.70;99.90
9537;DHT22;4807;48.024;11.726;2022-09-17T14:02:34;8.60;99.90
9537;DHT22;4807;48.024;11.726;2022-09-17T14:05:43;8.60;99.90
9537;DHT22;4807;48.024;11.726;2022-09-17T14:08:51;8.80;99.90
9537;DHT22;4807;48.024;11.726;2022-09-17T14:15:59;9.00;99.90
9537;DHT22;4807;48.024;11.726;2022-09-17T14:19:33;9.30;99.90
9537;DHT22;4807;48.024;11.726;2022-09-17T14:22:58;9.50;99.90
9537;DHT22;4807;48.024;11.726;2022-09-17T14:26:14;8.40;99.90
9537;DHT22;4807;48.024;11.726;2022-09-17T14:29:45;10.10;99.90
9537;DHT22;4807;48.024;11.726;2022-09-17T14:33:06;10.30;99.90
9537;DHT22;4807;48.024;11.726;2022-09-17T14:36:23;10.40;99.90
9537;DHT22;4807;48.024;11.726;2022-09-17T14:39:36;10.40;99.90
9537;DHT22;4807;48.024;11.726;2022-09-17T14:42:49;10.40;99.90
9537;DHT22;4807;48.024;11.726;2022-09-17T14:46:04;10.10;99.90
9537;DHT22;4807;48.024;11.726;2022-09-17T14:49:20;10.10;99.90
9537;DHT22;4807;48.024;11.726;2022-09-17T14:52:31;10.10;99.90
9537;DHT22;4807;48.024;11.726;2022-09-17T14:55:40;10.20;99.90
9537;DHT22;4807;48.024;11.726;2022-09-17T14:58:51;10.40;99.90
9537;DHT22;4807;48.024;11.726;2022-09-17T15:02:01;10.70;99.90
9537;DHT22;4807;48.024;11.726;2022-09-17T15:05:20;10.80;99.90
9537;DHT22;4807;48.024;11.726;2022-09-17T15:08:32;10.90;99.90
9537;DHT22;4807;48.024;11.726;2022-09-17T15:11:40;10.90;99.90
9537;DHT22;4807;48.024;11.726;2022-09-17T15:14:51;10.80;99.90
9537;DHT22;4807;48.024;11.726;2022-09-17T15:18:03;10.90;99.90
9537;DHT22;4807;48.024;11.726;2022-09-17T15:21:23;10.80;99.90
9537;DHT22;4807;48.024;11.726;2022-09-17T15:24:40;10.50;99.90
9537;DHT22;4807;48.024;11.726;2022-09-17T15:27:54;10.40;99.90
9537;DHT22;4807;48.024;11.726;2022-09-17T15:31:14;10.30;99.90
9537;DHT22;4807;48.024;11.726;2022-09-17T15:34:28;10.30;99.90
9537;DHT22;4807;48.024;11.726;2022-09-17T15:37:42;10.30;99.90
9537;DHT22;4807;48.024;11.726;2022-09-17T15:41:24;10.40;99.90
9537;DHT22;4807;48.024;11.726;2022-09-17T15:44:36;10.40;99.90
9537;DHT22;4807;48.024;11.726;2022-09-17T15:47:53;10.10;99.90
9537;DHT22;4807;48.024;11.726;2022-09-17T15:51:04;9.90;99.90
9537;DHT22;4807;48.024;11.726;2022-09-17T15:54:27;9.60;99.90
9537;DHT22;4807;48.024;11.726;2022-09-17T15:57:38;9.30;99.90
9537;DHT22;4807;48.024;11.726;2022-09-17T16:09:00;9.00;99.90
9537;DHT22;4807;48.024;11.726;2022-09-17T16:12:11;9.00;99.90
9537;DHT22;4807;48.024;11.726;2022-09-17T16:15:22;9.00;99.90
9537;DHT22;4807;48.024;11.726;2022-09-17T16:18:30;9.10;99.90
9537;DHT22;4807;48.024;11.726;2022-09-17T16:21:39;8.90;99.90
9537;DHT22;4807;48.024;11.726;2022-09-17T16:24:48;8.90;99.90
9537;DHT22;4807;48.024;11.726;2022-09-17T16:27:59;8.90;99.90
9537;DHT22;4807;48.024;11.726;2022-09-17T16:31:12;8.90;99.90
9537;DHT22;4807;48.024;11.726;2022-09-17T16:34:21;8.80;99.90
9537;DHT22;4807;48.024;11.726;2022-09-17T16:37:29;8.80;99.90
9537;DHT22;4807;48.024;11.726;2022-09-17T16:40:40;8.80;99.90
9537;DHT22;4807;48.024;11.726;2022-09-17T16:43:49;8.70;99.90
9537;DHT22;4807;48.024;11.726;2022-09-17T16:46:58;8.70;99.90
9537;DHT22;4807;48.024;11.726;2022-09-17T16:50:09;8.70;99.90
9537;DHT22;4807;48.024;11.726;2022-09-17T16:53:18;8.70;99.90
9537;DHT22;4807;48.024;11.726;2022-09-17T16:56:26;8.70;99.90
9537;DHT22;4807;48.024;11.726;2022-09-17T16:59:35;8.70;99.90
9537;DHT22;4807;48.024;11.726;2022-09-17T17:02:50;8.70;99.90
9537;DHT22;4807;48.024;11.726;2022-09-17T17:06:00;8.70;99.90
9537;DHT22;4807;48.024;11.726;2022-09-17T17:09:09;8.80;99.90
9537;DHT22;4807;48.024;11.726;2022-09-17T17:12:17;8.70;99.90
9537;DHT22;4807;48.024;11.726;2022-09-17T17:15:26;8.60;99.90
9537;DHT22;4807;48.024;11.726;2022-09-17T17:18:37;8.40;99.90
9537;DHT22;4807;48.024;11.726;2022-09-17T17:21:48;8.40;99.90
9537;DHT22;4807;48.024;11.726;2022-09-17T17:24:57;8.20;99.90
9537;DHT22;4807;48.024;11.726;2022-09-17T17:28:05;8.10;99.90
9537;DHT22;4807;48.024;11.726;2022-09-17T17:31:13;7.90;99.90
9537;DHT22;4807;48.024;11.726;2022-09-17T17:34:23;7.70;99.90
9537;DHT22;4807;48.024;11.726;2022-09-17T17:37:35;7.70;99.90
9537;DHT22;4807;48.024;11.726;2022-09-17T17:40:44;7.50;99.90
9537;DHT22;4807;48.024;11.726;2022-09-17T17:43:52;7.40;99.90
9537;DHT22;4807;48.024;11.726;2022-09-17T17:47:01;7.30;99.90
9537;DHT22;4807;48.024;11.726;2022-09-17T17:50:12;7.30;99.90
9537;DHT22;4807;48.024;11.726;2022-09-17T17:53:21;7.20;99.90
9537;DHT22;4807;48.024;11.726;2022-09-17T17:56:30;7.20;99.90
9537;DHT22;4807;48.024;11.726;2022-09-17T17:59:38;7.10;99.90
9537;DHT22;4807;48.024;11.726;2022-09-17T18:02:46;7.00;99.90
9537;DHT22;4807;48.024;11.726;2022-09-17T18:05:58;7.10;99.90
9537;DHT22;4807;48.024;11.726;2022-09-17T18:09:06;7.10;99.90
9537;DHT22;4807;48.024;11.726;2022-09-17T18:12:14;7.20;99.90
9537;DHT22;4807;48.024;11.726;2022-09-17T18:15:22;7.20;99.90
9537;DHT22;4807;48.024;11.726;2022-09-17T18:18:32;7.30;99.90
9537;DHT22;4807;48.024;11.726;2022-09-17T18:21:47;7.30;99.90
9537;DHT22;4807;48.024;11.726;2022-09-17T18:24:55;7.30;99.90
9537;DHT22;4807;48.024;11.726;2022-09-17T18:28:03;7.20;99.90
9537;DHT22;4807;48.024;11.726;2022-09-17T18:31:19;7.10;99.90
9537;DHT22;4807;48.024;11.726;2022-09-17T18:34:29;7.10;99.90
9537;DHT22;4807;48.024;11.726;2022-09-17T18:37:39;7.30;99.90
9537;DHT22;4807;48.024;11.726;2022-09-17T18:40:47;7.30;99.90
9537;DHT22;4807;48.024;11.726;2022-09-17T18:43:56;7.50;99.90
9537;DHT22;4807;48.024;11.726;2022-09-17T18:47:06;7.50;99.90
9537;DHT22;4807;48.024;11.726;2022-09-17T18:50:14;7.40;99.90
9537;DHT22;4807;48.024;11.726;2022-09-17T18:53:25;7.40;99.90
9537;DHT22;4807;48.024;11.726;2022-09-17T18:56:34;7.40;99.90
9537;DHT22;4807;48.024;11.726;2022-09-17T18:59:43;7.40;99.90
9537;DHT22;4807;48.024;11.726;2022-09-17T19:02:51;7.30;99.90
9537;DHT22;4807;48.024;11.726;2022-09-17T19:05:59;7.20;99.90
9537;DHT22;4807;48.024;11.726;2022-09-17T19:09:10;7.30;99.90
9537;DHT22;4807;48.024;11.726;2022-09-17T19:12:18;7.40;99.90
9537;DHT22;4807;48.024;11.726;2022-09-17T19:15:26;7.30;99.90
9537;DHT22;4807;48.024;11.726;2022-09-17T19:18:35;7.20;99.90
9537;DHT22;4807;48.024;11.726;2022-09-17T19:21:43;7.20;99.90
9537;DHT22;4807;48.024;11.726;2022-09-17T19:24:53;7.30;99.90
9537;DHT22;4807;48.024;11.726;2022-09-17T19:28:01;7.20;99.90
9537;DHT22;4807;48.024;11.726;2022-09-17T19:31:12;7.30;99.90
9537;DHT22;4807;48.024;11.726;2022-09-17T19:34:21;7.30;99.90
9537;DHT22;4807;48.024;11.726;2022-09-17T19:37:29;8.30;99.90
9537;DHT22;4807;48.024;11.726;2022-09-17T19:40:39;7.20;99.90
9537;DHT22;4807;48.024;11.726;2022-09-17T19:43:49;7.20;99.90
9537;DHT22;4807;48.024;11.726;2022-09-17T19:46:58;7.20;99.90
9537;DHT22;4807;48.024;11.726;2022-09-17T19:50:07;7.20;99.90
9537;DHT22;4807;48.024;11.726;2022-09-17T19:53:16;7.30;99.90
9537;DHT22;4807;48.024;11.726;2022-09-17T19:56:26;7.30;99.90
9537;DHT22;4807;48.024;11.726;2022-09-17T19:59:35;7.30;99.90
9537;DHT22;4807;48.024;11.726;2022-09-17T20:02:43;7.30;99.90
9537;DHT22;4807;48.024;11.726;2022-09-17T20:05:57;7.30;99.90
9537;DHT22;4807;48.024;11.726;2022-09-17T20:09:06;7.40;99.90
9537;DHT22;4807;48.024;11.726;2022-09-17T20:12:16;7.40;99.90
9537;DHT22;4807;48.024;11.726;2022-09-17T20:15:24;7.40;99.90
9537;DHT22;4807;48.024;11.726;2022-09-17T20:18:33;7.40;99.90
9537;DHT22;4807;48.024;11.726;2022-09-17T20:21:42;7.40;99.90
9537;DHT22;4807;48.024;11.726;2022-09-17T20:24:50;6.10;99.90
9537;DHT22;4807;48.024;11.726;2022-09-17T20:28:00;7.60;99.90
9537;DHT22;4807;48.024;11.726;2022-09-17T20:31:10;7.70;99.90
9537;DHT22;4807;48.024;11.726;2022-09-17T20:34:20;7.70;99.90
9537;DHT22;4807;48.024;11.726;2022-09-17T20:37:28;7.80;99.90
9537;DHT22;4807;48.024;11.726;2022-09-17T20:41:00;7.80;99.90
9537;DHT22;4807;48.024;11.726;2022-09-17T20:44:10;7.90;99.90
9537;DHT22;4807;48.024;11.726;2022-09-17T20:47:18;7.80;99.90
9537;DHT22;4807;48.024;11.726;2022-09-17T20:50:26;7.80;99.90
9537;DHT22;4807;48.024;11.726;2022-09-17T20:53:35;7.80;99.90
9537;DHT22;4807;48.024;11.726;2022-09-17T20:56:45;7.80;99.90
9537;DHT22;4807;48.024;11.726;2022-09-17T21:00:03;7.70;99.90
9537;DHT22;4807;48.024;11.726;2022-09-17T21:03:24;7.70;99.90
9537;DHT22;4807;48.024;11.726;2022-09-17T21:06:36;7.70;99.90
9537;DHT22;4807;48.024;11.726;2022-09-17T21:09:46;7.50;99.90
9537;DHT22;4807;48.024;11.726;2022-09-17T21:12:55;7.70;99.90
9537;DHT22;4807;48.024;11.726;2022-09-17T21:16:05;7.70;99.90
9537;DHT22;4807;48.024;11.726;2022-09-17T21:19:13;7.80;99.90
9537;DHT22;4807;48.024;11.726;2022-09-17T21:22:22;7.80;99.90